sensor_id;sensor_type;location;lat;lon;timestamp;temperature;humidity
47765;DHT22;33529;49.242;8.670;2023-08-01T00:01:37;17.90;99.90
47765;DHT22;33529;49.242;8.670;2023-08-01T00:04:04;17.90;99.90
47765;DHT22;33529;49.242;8.670;2023-08-01T00:06:31;17.80;99.90
47765;DHT22;33529;49.242;8.670;2023-08-01T00:08:57;17.80;99.90
47765;DHT22;33529;49.242;8.670;2023-08-01T00:11:24;17.80;99.90
47765;DHT22;33529;49.242;8.670;2023-08-01T00:13:51;17.80;99.90
47765;DHT22;33529;49.242;8.670;2023-08-01T00:16:18;17.80;99.90
47765;DHT22;33529;49.242;8.670;2023-08-01T00:18:45;17.80;99.90
47765;DHT22;33529;49.242;8.670;2023-08-01T00:21:11;17.70;99.90
47765;DHT22;33529;49.242;8.670;2023-08-01T00:23:38;17.60;99.90
47765;DHT22;33529;49.242;8.670;2023-08-01T00:26:05;17.60;99.90
47765;DHT22;33529;49.242;8.670;2023-08-01T00:28:32;17.50;99.90
47765;DHT22;33529;49.242;8.670;2023-08-01T00:31:06;17.40;99.90
47765;DHT22;33529;49.242;8.670;2023-08-01T00:33:33;17.50;99.90
47765;DHT22;33529;49.242;8.670;2023-08-01T00:36:00;17.50;99.90
47765;DHT22;33529;49.242;8.670;2023-08-01T00:38:27;17.50;99.90
47765;DHT22;33529;49.242;8.670;2023-08-01T00:40:54;17.50;99.90
47765;DHT22;33529;49.242;8.670;2023-08-01T00:43:21;17.50;99.90
47765;DHT22;33529;49.242;8.670;2023-08-01T00:45:48;17.50;99.90
47765;DHT22;33529;49.242;8.670;2023-08-01T00:48:15;17.50;99.90
47765;DHT22;33529;49.242;8.670;2023-08-01T00:50:43;17.50;99.90
47765;DHT22;33529;49.242;8.670;2023-08-01T00:53:10;17.50;99.90
47765;DHT22;33529;49.242;8.670;2023-08-01T00:55:38;17.50;99.90
47765;DHT22;33529;49.242;8.670;2023-08-01T00:58:05;17.50;99.90
47765;DHT22;33529;49.242;8.670;2023-08-01T01:00:32;17.60;99.90
47765;DHT22;33529;49.242;8.670;2023-08-01T01:03:01;17.50;99.90
47765;DHT22;33529;49.242;8.670;2023-08-01T01:05:31;17.60;99.90
47765;DHT22;33529;49.242;8.670;2023-08-01T01:08:02;17.60;99.90
47765;DHT22;33529;49.242;8.670;2023-08-01T01:10:29;17.60;99.90
47765;DHT22;33529;49.242;8.670;2023-08-01T01:12:55;17.60;99.90
47765;DHT22;33529;49.242;8.670;2023-08-01T01:15:22;17.60;99.90
47765;DHT22;33529;49.242;8.670;2023-08-01T01:17:49;17.60;99.90
47765;DHT22;33529;49.242;8.670;2023-08-01T01:20:21;17.50;99.90
47765;DHT22;33529;49.242;8.670;2023-08-01T01:22:49;17.50;99.90
47765;DHT22;33529;49.242;8.670;2023-08-01T01:25:16;17.50;99.90
47765;DHT22;33529;49.242;8.670;2023-08-01T01:27:44;17.60;99.90
47765;DHT22;33529;49.242;8.670;2023-08-01T01:30:12;17.60;99.90
47765;DHT22;33529;49.242;8.670;2023-08-01T01:32:39;17.60;99.90
47765;DHT22;33529;49.242;8.670;2023-08-01T01:35:07;17.60;99.90
47765;DHT22;33529;49.242;8.670;2023-08-01T01:37:33;17.60;99.90
47765;DHT22;33529;49.242;8.670;2023-08-01T01:40:00;17.50;99.90
47765;DHT22;33529;49.242;8.670;2023-08-01T01:42:27;17.50;99.90
47765;DHT22;33529;49.242;8.670;2023-08-01T01:44:54;17.50;99.90
47765;DHT22;33529;49.242;8.670;2023-08-01T01:47:20;17.40;99.90
47765;DHT22;33529;49.242;8.670;2023-08-01T01:49:47;17.40;99.90
47765;DHT22;33529;49.242;8.670;2023-08-01T01:52:14;17.50;99.90
47765;DHT22;33529;49.242;8.670;2023-08-01T01:54:41;17.50;99.90
47765;DHT22;33529;49.242;8.670;2023-08-01T01:57:08;17.50;99.90
47765;DHT22;33529;49.242;8.670;2023-08-01T01:59:35;17.50;99.90
47765;DHT22;33529;49.242;8.670;2023-08-01T02:02:02;17.60;99.90
47765;DHT22;33529;49.242;8.670;2023-08-01T02:04:30;17.60;99.90
47765;DHT22;33529;49.242;8.670;2023-08-01T02:06:57;17.60;99.90
47765;DHT22;33529;49.242;8.670;2023-08-01T02:09:24;17.60;99.90
47765;DHT22;33529;49.242;8.670;2023-08-01T02:11:51;17.60;99.90
47765;DHT22;33529;49.242;8.670;2023-08-01T02:14:18;17.60;99.90
47765;DHT22;33529;49.242;8.670;2023-08-01T02:16:45;17.70;99.90
47765;DHT22;33529;49.242;8.670;2023-08-01T02:19:12;17.70;99.90
47765;DHT22;33529;49.242;8.670;2023-08-01T02:21:39;17.60;99.90
47765;DHT22;33529;49.242;8.670;2023-08-01T02:24:06;17.60;99.90
47765;DHT22;33529;49.242;8.670;2023-08-01T02:26:34;17.60;99.90
47765;DHT22;33529;49.242;8.670;2023-08-01T02:29:01;17.60;99.90
47765;DHT22;33529;49.242;8.670;2023-08-01T02:31:28;17.60;99.90
47765;DHT22;33529;49.242;8.670;2023-08-01T02:33:55;17.60;99.90
47765;DHT22;33529;49.242;8.670;2023-08-01T02:36:22;17.60;99.90
47765;DHT22;33529;49.242;8.670;2023-08-01T02:38:49;17.60;99.90
47765;DHT22;33529;49.242;8.670;2023-08-01T02:41:16;17.60;99.90
47765;DHT22;33529;49.242;8.670;2023-08-01T02:43:43;17.60;99.90
47765;DHT22;33529;49.242;8.670;2023-08-01T02:46:10;17.60;99.90
47765;DHT22;33529;49.242;8.670;2023-08-01T02:48:36;17.70;99.90
47765;DHT22;33529;49.242;8.670;2023-08-01T02:51:03;17.60;99.90
47765;DHT22;33529;49.242;8.670;2023-08-01T02:53:30;17.60;99.90
47765;DHT22;33529;49.242;8.670;2023-08-01T02:55:57;17.70;99.90
47765;DHT22;33529;49.242;8.670;2023-08-01T02:58:24;17.70;99.90
47765;DHT22;33529;49.242;8.670;2023-08-01T03:00:50;17.70;99.90
47765;DHT22;33529;49.242;8.670;2023-08-01T03:03:17;17.70;99.90
47765;DHT22;33529;49.242;8.670;2023-08-01T03:05:44;17.60;99.90
47765;DHT22;33529;49.242;8.670;2023-08-01T03:08:11;17.60;99.90
47765;DHT22;33529;49.242;8.670;2023-08-01T03:10:39;17.60;99.90
47765;DHT22;33529;49.242;8.670;2023-08-01T03:13:07;17.50;99.90
47765;DHT22;33529;49.242;8.670;2023-08-01T03:15:34;17.50;99.90
47765;DHT22;33529;49.242;8.670;2023-08-01T03:18:01;17.50;99.90
47765;DHT22;33529;49.242;8.670;2023-08-01T03:20:28;17.50;99.90
47765;DHT22;33529;49.242;8.670;2023-08-01T03:22:55;17.50;99.90
47765;DHT22;33529;49.242;8.670;2023-08-01T03:25:22;17.50;99.90
47765;DHT22;33529;49.242;8.670;2023-08-01T03:27:49;17.50;99.90
47765;DHT22;33529;49.242;8.670;2023-08-01T03:30:16;17.60;99.90
47765;DHT22;33529;49.242;8.670;2023-08-01T03:32:43;17.60;99.90
47765;DHT22;33529;49.242;8.670;2023-08-01T03:35:09;17.60;99.90
47765;DHT22;33529;49.242;8.670;2023-08-01T03:37:36;17.60;99.90
47765;DHT22;33529;49.242;8.670;2023-08-01T03:40:04;17.60;99.90
47765;DHT22;33529;49.242;8.670;2023-08-01T03:42:31;17.50;99.90
47765;DHT22;33529;49.242;8.670;2023-08-01T03:44:58;17.60;99.90
47765;DHT22;33529;49.242;8.670;2023-08-01T03:47:25;17.50;99.90
47765;DHT22;33529;49.242;8.670;2023-08-01T03:49:52;17.50;99.90
47765;DHT22;33529;49.242;8.670;2023-08-01T03:52:19;17.50;99.90
47765;DHT22;33529;49.242;8.670;2023-08-01T03:54:46;17.50;99.90
47765;DHT22;33529;49.242;8.670;2023-08-01T03:57:14;17.50;99.90
47765;DHT22;33529;49.242;8.670;2023-08-01T03:59:41;17.50;99.90
47765;DHT22;33529;49.242;8.670;2023-08-01T04:02:09;17.50;99.90
47765;DHT22;33529;49.242;8.670;2023-08-01T04:04:35;17.60;99.90
47765;DHT22;33529;49.242;8.670;2023-08-01T04:07:02;17.50;99.90
47765;DHT22;33529;49.242;8.670;2023-08-01T04:09:30;17.50;99.90
47765;DHT22;33529;49.242;8.670;2023-08-01T04:11:57;17.50;99.90
47765;DHT22;33529;49.242;8.670;2023-08-01T04:14:23;17.50;99.90
47765;DHT22;33529;49.242;8.670;2023-08-01T04:16:50;17.50;99.90
47765;DHT22;33529;49.242;8.670;2023-08-01T04:19:18;17.50;99.90
47765;DHT22;33529;49.242;8.670;2023-08-01T04:21:45;17.60;99.90
47765;DHT22;33529;49.242;8.670;2023-08-01T04:24:12;17.60;99.90
47765;DHT22;33529;49.242;8.670;2023-08-01T04:26:38;17.50;99.90
47765;DHT22;33529;49.242;8.670;2023-08-01T04:29:06;17.60;99.90
47765;DHT22;33529;49.242;8.670;2023-08-01T04:31:33;17.60;99.90
47765;DHT22;33529;49.242;8.670;2023-08-01T04:34:00;17.60;99.90
47765;DHT22;33529;49.242;8.670;2023-08-01T04:36:27;17.60;99.90
47765;DHT22;33529;49.242;8.670;2023-08-01T04:38:53;17.60;99.90
47765;DHT22;33529;49.242;8.670;2023-08-01T04:41:20;17.60;99.90
47765;DHT22;33529;49.242;8.670;2023-08-01T04:43:47;17.60;99.90
47765;DHT22;33529;49.242;8.670;2023-08-01T04:46:14;17.60;99.90
47765;DHT22;33529;49.242;8.670;2023-08-01T04:48:41;17.60;99.90
47765;DHT22;33529;49.242;8.670;2023-08-01T04:51:08;17.60;99.90
47765;DHT22;33529;49.242;8.670;2023-08-01T04:53:35;17.60;99.90
47765;DHT22;33529;49.242;8.670;2023-08-01T04:56:02;17.60;99.90
47765;DHT22;33529;49.242;8.670;2023-08-01T04:58:28;17.70;99.90
47765;DHT22;33529;49.242;8.670;2023-08-01T05:00:57;17.70;99.90
47765;DHT22;33529;49.242;8.670;2023-08-01T05:03:24;17.70;99.90
47765;DHT22;33529;49.242;8.670;2023-08-01T05:05:51;17.70;99.90
47765;DHT22;33529;49.242;8.670;2023-08-01T05:08:17;17.60;99.90
47765;DHT22;33529;49.242;8.670;2023-08-01T05:10:44;17.60;99.90
47765;DHT22;33529;49.242;8.670;2023-08-01T05:13:11;17.60;99.90
47765;DHT22;33529;49.242;8.670;2023-08-01T05:15:38;17.60;99.90
47765;DHT22;33529;49.242;8.670;2023-08-01T05:18:04;17.60;99.90
47765;DHT22;33529;49.242;8.670;2023-08-01T05:20:31;17.60;99.90
47765;DHT22;33529;49.242;8.670;2023-08-01T05:23:00;17.60;99.90
47765;DHT22;33529;49.242;8.670;2023-08-01T05:25:26;17.60;99.90
47765;DHT22;33529;49.242;8.670;2023-08-01T05:27:53;17.60;99.90
47765;DHT22;33529;49.242;8.670;2023-08-01T05:30:20;17.60;99.90
47765;DHT22;33529;49.242;8.670;2023-08-01T05:32:47;17.60;99.90
47765;DHT22;33529;49.242;8.670;2023-08-01T05:35:14;17.60;99.90
47765;DHT22;33529;49.242;8.670;2023-08-01T05:37:41;17.60;99.90
47765;DHT22;33529;49.242;8.670;2023-08-01T05:40:08;17.50;99.90
47765;DHT22;33529;49.242;8.670;2023-08-01T05:42:35;17.50;99.90
47765;DHT22;33529;49.242;8.670;2023-08-01T05:45:02;17.60;99.90
47765;DHT22;33529;49.242;8.670;2023-08-01T05:47:30;17.50;99.90
47765;DHT22;33529;49.242;8.670;2023-08-01T05:49:57;17.50;99.90
47765;DHT22;33529;49.242;8.670;2023-08-01T05:52:24;17.40;99.90
47765;DHT22;33529;49.242;8.670;2023-08-01T05:54:51;17.40;99.90
47765;DHT22;33529;49.242;8.670;2023-08-01T05:57:18;17.40;99.90
47765;DHT22;33529;49.242;8.670;2023-08-01T05:59:45;17.40;99.90
47765;DHT22;33529;49.242;8.670;2023-08-01T06:02:12;17.20;99.90
47765;DHT22;33529;49.242;8.670;2023-08-01T06:04:39;17.20;99.90
47765;DHT22;33529;49.242;8.670;2023-08-01T06:07:06;17.20;99.90
47765;DHT22;33529;49.242;8.670;2023-08-01T06:09:33;17.20;99.90
47765;DHT22;33529;49.242;8.670;2023-08-01T06:12:00;17.20;99.90
47765;DHT22;33529;49.242;8.670;2023-08-01T06:14:27;17.20;99.90
47765;DHT22;33529;49.242;8.670;2023-08-01T06:16:54;17.20;99.90
47765;DHT22;33529;49.242;8.670;2023-08-01T06:19:21;17.20;99.90
47765;DHT22;33529;49.242;8.670;2023-08-01T06:21:47;17.20;99.90
47765;DHT22;33529;49.242;8.670;2023-08-01T06:24:14;17.20;99.90
47765;DHT22;33529;49.242;8.670;2023-08-01T06:26:41;17.20;99.90
47765;DHT22;33529;49.242;8.670;2023-08-01T06:29:09;17.30;99.90
47765;DHT22;33529;49.242;8.670;2023-08-01T06:31:36;17.30;99.90
47765;DHT22;33529;49.242;8.670;2023-08-01T06:34:02;17.20;99.90
47765;DHT22;33529;49.242;8.670;2023-08-01T06:36:29;17.30;99.90
47765;DHT22;33529;49.242;8.670;2023-08-01T06:38:56;17.20;99.90
47765;DHT22;33529;49.242;8.670;2023-08-01T06:41:23;17.20;99.90
47765;DHT22;33529;49.242;8.670;2023-08-01T06:43:51;17.20;99.90
47765;DHT22;33529;49.242;8.670;2023-08-01T06:46:18;17.10;99.90
47765;DHT22;33529;49.242;8.670;2023-08-01T06:48:45;17.10;99.90
47765;DHT22;33529;49.242;8.670;2023-08-01T06:51:11;17.10;99.90
47765;DHT22;33529;49.242;8.670;2023-08-01T06:53:38;17.10;99.90
47765;DHT22;33529;49.242;8.670;2023-08-01T06:56:05;17.10;99.90
47765;DHT22;33529;49.242;8.670;2023-08-01T06:58:32;17.10;99.90
47765;DHT22;33529;49.242;8.670;2023-08-01T07:00:58;17.10;99.90
47765;DHT22;33529;49.242;8.670;2023-08-01T07:03:25;17.00;99.90
47765;DHT22;33529;49.242;8.670;2023-08-01T07:05:52;17.00;99.90
47765;DHT22;33529;49.242;8.670;2023-08-01T07:08:20;17.00;99.90
47765;DHT22;33529;49.242;8.670;2023-08-01T07:10:48;17.00;99.90
47765;DHT22;33529;49.242;8.670;2023-08-01T07:13:15;17.00;99.90
47765;DHT22;33529;49.242;8.670;2023-08-01T07:15:42;17.00;99.90
47765;DHT22;33529;49.242;8.670;2023-08-01T07:18:09;17.10;99.90
47765;DHT22;33529;49.242;8.670;2023-08-01T07:20:36;17.10;99.90
47765;DHT22;33529;49.242;8.670;2023-08-01T07:23:03;17.10;99.90
47765;DHT22;33529;49.242;8.670;2023-08-01T07:25:30;17.10;99.90
47765;DHT22;33529;49.242;8.670;2023-08-01T07:27:56;17.10;99.90
47765;DHT22;33529;49.242;8.670;2023-08-01T07:30:24;17.10;99.90
47765;DHT22;33529;49.242;8.670;2023-08-01T07:32:51;17.10;99.90
47765;DHT22;33529;49.242;8.670;2023-08-01T07:35:18;17.10;99.90
47765;DHT22;33529;49.242;8.670;2023-08-01T07:37:44;17.10;99.90
47765;DHT22;33529;49.242;8.670;2023-08-01T07:40:11;17.20;99.90
47765;DHT22;33529;49.242;8.670;2023-08-01T07:42:38;17.10;99.90
47765;DHT22;33529;49.242;8.670;2023-08-01T07:45:05;17.20;99.90
47765;DHT22;33529;49.242;8.670;2023-08-01T07:47:33;17.20;99.90
47765;DHT22;33529;49.242;8.670;2023-08-01T07:50:00;17.30;99.90
47765;DHT22;33529;49.242;8.670;2023-08-01T07:52:27;17.40;99.90
47765;DHT22;33529;49.242;8.670;2023-08-01T07:54:54;17.40;99.90
47765;DHT22;33529;49.242;8.670;2023-08-01T07:57:22;17.40;99.90
47765;DHT22;33529;49.242;8.670;2023-08-01T07:59:49;17.40;99.90
47765;DHT22;33529;49.242;8.670;2023-08-01T08:02:16;17.40;99.90
47765;DHT22;33529;49.242;8.670;2023-08-01T08:04:42;17.40;99.90
47765;DHT22;33529;49.242;8.670;2023-08-01T08:07:09;17.30;99.90
47765;DHT22;33529;49.242;8.670;2023-08-01T08:09:36;17.40;99.90
47765;DHT22;33529;49.242;8.670;2023-08-01T08:12:03;17.30;99.90
47765;DHT22;33529;49.242;8.670;2023-08-01T08:14:30;17.40;99.90
47765;DHT22;33529;49.242;8.670;2023-08-01T08:16:57;17.50;99.90
47765;DHT22;33529;49.242;8.670;2023-08-01T08:19:24;17.70;99.90
47765;DHT22;33529;49.242;8.670;2023-08-01T08:21:51;17.80;99.90
47765;DHT22;33529;49.242;8.670;2023-08-01T08:24:19;17.80;99.90
47765;DHT22;33529;49.242;8.670;2023-08-01T08:26:45;18.00;99.90
47765;DHT22;33529;49.242;8.670;2023-08-01T08:29:12;18.10;99.90
47765;DHT22;33529;49.242;8.670;2023-08-01T08:31:39;18.30;99.90
47765;DHT22;33529;49.242;8.670;2023-08-01T08:34:06;18.50;99.90
47765;DHT22;33529;49.242;8.670;2023-08-01T08:36:33;18.90;99.90
47765;DHT22;33529;49.242;8.670;2023-08-01T08:38:59;19.10;99.90
47765;DHT22;33529;49.242;8.670;2023-08-01T08:41:28;19.30;99.90
47765;DHT22;33529;49.242;8.670;2023-08-01T08:43:57;19.50;99.90
47765;DHT22;33529;49.242;8.670;2023-08-01T08:46:29;19.50;99.90
47765;DHT22;33529;49.242;8.670;2023-08-01T08:48:57;19.50;99.90
47765;DHT22;33529;49.242;8.670;2023-08-01T08:51:26;19.40;99.90
47765;DHT22;33529;49.242;8.670;2023-08-01T08:53:56;19.40;99.90
47765;DHT22;33529;49.242;8.670;2023-08-01T08:56:26;19.50;99.90
47765;DHT22;33529;49.242;8.670;2023-08-01T08:58:55;19.50;99.90
47765;DHT22;33529;49.242;8.670;2023-08-01T09:01:22;19.50;99.90
47765;DHT22;33529;49.242;8.670;2023-08-01T09:03:49;19.30;99.90
47765;DHT22;33529;49.242;8.670;2023-08-01T09:06:18;19.30;99.90
47765;DHT22;33529;49.242;8.670;2023-08-01T09:09:02;19.20;99.90
47765;DHT22;33529;49.242;8.670;2023-08-01T09:11:46;19.20;99.90
47765;DHT22;33529;49.242;8.670;2023-08-01T09:14:14;19.20;99.90
47765;DHT22;33529;49.242;8.670;2023-08-01T09:16:42;19.30;99.90
47765;DHT22;33529;49.242;8.670;2023-08-01T09:19:09;19.50;99.90
47765;DHT22;33529;49.242;8.670;2023-08-01T09:21:38;19.70;99.90
47765;DHT22;33529;49.242;8.670;2023-08-01T09:24:12;19.80;99.90
47765;DHT22;33529;49.242;8.670;2023-08-01T09:26:41;19.90;99.90
47765;DHT22;33529;49.242;8.670;2023-08-01T09:29:09;20.10;99.90
47765;DHT22;33529;49.242;8.670;2023-08-01T09:31:38;20.20;99.90
47765;DHT22;33529;49.242;8.670;2023-08-01T09:34:28;20.40;99.90
47765;DHT22;33529;49.242;8.670;2023-08-01T09:36:58;20.40;99.90
47765;DHT22;33529;49.242;8.670;2023-08-01T09:39:26;20.30;99.90
47765;DHT22;33529;49.242;8.670;2023-08-01T09:42:00;20.40;99.90
47765;DHT22;33529;49.242;8.670;2023-08-01T09:44:29;20.70;99.90
47765;DHT22;33529;49.242;8.670;2023-08-01T09:47:00;20.70;99.90
47765;DHT22;33529;49.242;8.670;2023-08-01T09:49:28;20.60;99.90
47765;DHT22;33529;49.242;8.670;2023-08-01T09:51:55;20.60;99.90
47765;DHT22;33529;49.242;8.670;2023-08-01T09:54:22;20.40;99.90
47765;DHT22;33529;49.242;8.670;2023-08-01T09:56:51;20.50;99.90
47765;DHT22;33529;49.242;8.670;2023-08-01T09:59:23;20.50;99.90
47765;DHT22;33529;49.242;8.670;2023-08-01T10:01:52;20.60;99.90
47765;DHT22;33529;49.242;8.670;2023-08-01T10:04:21;20.90;99.90
47765;DHT22;33529;49.242;8.670;2023-08-01T10:06:59;21.30;99.90
47765;DHT22;33529;49.242;8.670;2023-08-01T10:09:27;21.60;99.90
47765;DHT22;33529;49.242;8.670;2023-08-01T10:11:57;21.70;99.90
47765;DHT22;33529;49.242;8.670;2023-08-01T10:14:25;22.00;99.90
47765;DHT22;33529;49.242;8.670;2023-08-01T10:16:53;22.50;99.90
47765;DHT22;33529;49.242;8.670;2023-08-01T10:19:20;22.80;99.90
47765;DHT22;33529;49.242;8.670;2023-08-01T10:21:48;22.90;99.90
47765;DHT22;33529;49.242;8.670;2023-08-01T10:24:16;22.90;99.90
47765;DHT22;33529;49.242;8.670;2023-08-01T10:26:47;23.00;99.90
47765;DHT22;33529;49.242;8.670;2023-08-01T10:29:14;23.10;99.90
47765;DHT22;33529;49.242;8.670;2023-08-01T10:31:52;22.70;99.90
47765;DHT22;33529;49.242;8.670;2023-08-01T10:34:19;22.30;99.90
47765;DHT22;33529;49.242;8.670;2023-08-01T10:36:56;22.20;99.90
47765;DHT22;33529;49.242;8.670;2023-08-01T10:39:24;22.00;99.90
47765;DHT22;33529;49.242;8.670;2023-08-01T10:42:02;21.90;99.90
47765;DHT22;33529;49.242;8.670;2023-08-01T10:44:29;21.70;99.90
47765;DHT22;33529;49.242;8.670;2023-08-01T10:47:00;21.50;99.90
47765;DHT22;33529;49.242;8.670;2023-08-01T10:52:01;21.50;99.90
47765;DHT22;33529;49.242;8.670;2023-08-01T10:54:28;21.70;99.90
47765;DHT22;33529;49.242;8.670;2023-08-01T10:56:56;21.80;99.90
47765;DHT22;33529;49.242;8.670;2023-08-01T10:59:26;21.80;99.90
47765;DHT22;33529;49.242;8.670;2023-08-01T11:01:59;21.90;99.90
47765;DHT22;33529;49.242;8.670;2023-08-01T11:04:27;22.00;99.90
47765;DHT22;33529;49.242;8.670;2023-08-01T11:06:55;22.20;99.90
47765;DHT22;33529;49.242;8.670;2023-08-01T11:09:26;22.20;99.90
47765;DHT22;33529;49.242;8.670;2023-08-01T11:11:58;22.30;99.90
47765;DHT22;33529;49.242;8.670;2023-08-01T11:14:27;22.50;99.90
47765;DHT22;33529;49.242;8.670;2023-08-01T11:16:55;22.60;99.90
47765;DHT22;33529;49.242;8.670;2023-08-01T11:19:24;22.30;99.90
47765;DHT22;33529;49.242;8.670;2023-08-01T11:21:52;22.10;99.90
47765;DHT22;33529;49.242;8.670;2023-08-01T11:24:19;21.80;99.90
47765;DHT22;33529;49.242;8.670;2023-08-01T11:26:48;21.50;99.90
47765;DHT22;33529;49.242;8.670;2023-08-01T11:29:16;21.20;99.90
47765;DHT22;33529;49.242;8.670;2023-08-01T11:34:20;21.20;99.90
47765;DHT22;33529;49.242;8.670;2023-08-01T11:36:48;21.40;99.90
47765;DHT22;33529;49.242;8.670;2023-08-01T11:39:16;21.50;99.90
47765;DHT22;33529;49.242;8.670;2023-08-01T11:41:44;21.80;99.90
47765;DHT22;33529;49.242;8.670;2023-08-01T11:44:11;22.10;99.90
47765;DHT22;33529;49.242;8.670;2023-08-01T11:46:38;22.20;99.90
47765;DHT22;33529;49.242;8.670;2023-08-01T11:49:07;22.30;99.90
47765;DHT22;33529;49.242;8.670;2023-08-01T11:51:42;22.40;99.90
47765;DHT22;33529;49.242;8.670;2023-08-01T11:54:09;22.60;99.90
47765;DHT22;33529;49.242;8.670;2023-08-01T11:56:40;22.70;99.90
47765;DHT22;33529;49.242;8.670;2023-08-01T12:04:07;23.30;99.90
47765;DHT22;33529;49.242;8.670;2023-08-01T12:06:34;23.40;99.90
47765;DHT22;33529;49.242;8.670;2023-08-01T12:09:19;23.30;99.90
47765;DHT22;33529;49.242;8.670;2023-08-01T12:11:46;23.20;99.90
47765;DHT22;33529;49.242;8.670;2023-08-01T12:14:14;23.30;99.90
47765;DHT22;33529;49.242;8.670;2023-08-01T12:16:50;23.50;99.90
47765;DHT22;33529;49.242;8.670;2023-08-01T12:19:18;23.60;99.90
47765;DHT22;33529;49.242;8.670;2023-08-01T12:21:46;23.70;99.70
47765;DHT22;33529;49.242;8.670;2023-08-01T12:24:13;23.90;99.60
47765;DHT22;33529;49.242;8.670;2023-08-01T12:26:40;23.80;99.90
47765;DHT22;33529;49.242;8.670;2023-08-01T12:29:07;23.50;99.90
47765;DHT22;33529;49.242;8.670;2023-08-01T12:31:36;23.40;99.90
47765;DHT22;33529;49.242;8.670;2023-08-01T12:34:03;23.50;99.90
47765;DHT22;33529;49.242;8.670;2023-08-01T12:36:30;23.40;99.90
47765;DHT22;33529;49.242;8.670;2023-08-01T12:38:57;23.30;99.90
47765;DHT22;33529;49.242;8.670;2023-08-01T12:41:23;23.20;99.90
47765;DHT22;33529;49.242;8.670;2023-08-01T12:43:50;23.20;99.90
47765;DHT22;33529;49.242;8.670;2023-08-01T12:46:17;23.40;99.90
47765;DHT22;33529;49.242;8.670;2023-08-01T12:48:44;23.60;99.90
47765;DHT22;33529;49.242;8.670;2023-08-01T12:51:11;23.70;98.60
47765;DHT22;33529;49.242;8.670;2023-08-01T12:53:38;23.70;99.90
47765;DHT22;33529;49.242;8.670;2023-08-01T12:56:09;23.90;99.90
47765;DHT22;33529;49.242;8.670;2023-08-01T12:58:36;24.30;99.80
47765;DHT22;33529;49.242;8.670;2023-08-01T13:01:03;24.70;99.90
47765;DHT22;33529;49.242;8.670;2023-08-01T13:03:31;24.80;97.40
47765;DHT22;33529;49.242;8.670;2023-08-01T13:05:58;24.60;95.10
47765;DHT22;33529;49.242;8.670;2023-08-01T13:08:27;24.20;96.90
47765;DHT22;33529;49.242;8.670;2023-08-01T13:10:56;23.90;95.20
47765;DHT22;33529;49.242;8.670;2023-08-01T13:13:26;23.70;96.30
47765;DHT22;33529;49.242;8.670;2023-08-01T13:15:55;23.70;95.70
47765;DHT22;33529;49.242;8.670;2023-08-01T13:18:22;23.90;97.60
47765;DHT22;33529;49.242;8.670;2023-08-01T13:20:49;24.00;96.30
47765;DHT22;33529;49.242;8.670;2023-08-01T13:23:16;23.70;94.40
47765;DHT22;33529;49.242;8.670;2023-08-01T13:25:43;23.60;95.60
47765;DHT22;33529;49.242;8.670;2023-08-01T13:28:12;23.60;95.50
47765;DHT22;33529;49.242;8.670;2023-08-01T13:30:40;23.60;95.10
47765;DHT22;33529;49.242;8.670;2023-08-01T13:33:06;23.90;95.50
47765;DHT22;33529;49.242;8.670;2023-08-01T13:35:33;24.20;96.50
47765;DHT22;33529;49.242;8.670;2023-08-01T13:38:00;24.40;93.60
47765;DHT22;33529;49.242;8.670;2023-08-01T13:40:27;24.40;93.80
47765;DHT22;33529;49.242;8.670;2023-08-01T13:42:54;24.40;93.60
47765;DHT22;33529;49.242;8.670;2023-08-01T13:45:21;24.20;94.10
47765;DHT22;33529;49.242;8.670;2023-08-01T13:47:47;24.30;94.30
47765;DHT22;33529;49.242;8.670;2023-08-01T13:50:17;24.20;92.90
47765;DHT22;33529;49.242;8.670;2023-08-01T13:52:44;24.10;93.70
47765;DHT22;33529;49.242;8.670;2023-08-01T13:55:12;23.70;92.70
47765;DHT22;33529;49.242;8.670;2023-08-01T13:57:41;23.50;93.50
47765;DHT22;33529;49.242;8.670;2023-08-01T14:00:15;23.30;93.70
47765;DHT22;33529;49.242;8.670;2023-08-01T14:02:42;23.20;93.90
47765;DHT22;33529;49.242;8.670;2023-08-01T14:05:09;23.30;94.40
47765;DHT22;33529;49.242;8.670;2023-08-01T14:07:37;23.50;93.90
47765;DHT22;33529;49.242;8.670;2023-08-01T14:10:09;23.80;93.30
47765;DHT22;33529;49.242;8.670;2023-08-01T14:12:36;23.80;93.30
47765;DHT22;33529;49.242;8.670;2023-08-01T14:15:03;23.80;93.90
47765;DHT22;33529;49.242;8.670;2023-08-01T14:17:30;23.80;93.20
47765;DHT22;33529;49.242;8.670;2023-08-01T14:19:57;24.00;92.90
47765;DHT22;33529;49.242;8.670;2023-08-01T14:22:24;24.30;92.70
47765;DHT22;33529;49.242;8.670;2023-08-01T14:24:51;24.10;91.70
47765;DHT22;33529;49.242;8.670;2023-08-01T14:27:18;23.70;92.50
47765;DHT22;33529;49.242;8.670;2023-08-01T14:29:44;23.80;92.90
47765;DHT22;33529;49.242;8.670;2023-08-01T14:32:11;23.90;93.40
47765;DHT22;33529;49.242;8.670;2023-08-01T14:34:38;24.10;93.80
47765;DHT22;33529;49.242;8.670;2023-08-01T14:37:05;24.60;92.50
47765;DHT22;33529;49.242;8.670;2023-08-01T14:39:32;25.30;91.50
47765;DHT22;33529;49.242;8.670;2023-08-01T14:41:59;26.20;90.60
47765;DHT22;33529;49.242;8.670;2023-08-01T14:44:30;26.60;90.10
47765;DHT22;33529;49.242;8.670;2023-08-01T14:46:56;26.60;87.80
47765;DHT22;33529;49.242;8.670;2023-08-01T14:49:23;27.20;86.00
47765;DHT22;33529;49.242;8.670;2023-08-01T14:51:54;27.80;85.40
47765;DHT22;33529;49.242;8.670;2023-08-01T14:54:22;28.40;81.30
47765;DHT22;33529;49.242;8.670;2023-08-01T14:57:04;27.30;81.70
47765;DHT22;33529;49.242;8.670;2023-08-01T14:59:31;27.30;83.40
47765;DHT22;33529;49.242;8.670;2023-08-01T15:01:58;26.60;85.00
47765;DHT22;33529;49.242;8.670;2023-08-01T15:04:25;26.60;84.10
47765;DHT22;33529;49.242;8.670;2023-08-01T15:06:53;26.40;86.00
47765;DHT22;33529;49.242;8.670;2023-08-01T15:09:20;26.50;86.80
47765;DHT22;33529;49.242;8.670;2023-08-01T15:11:47;27.90;83.90
47765;DHT22;33529;49.242;8.670;2023-08-01T15:14:14;28.30;82.00
47765;DHT22;33529;49.242;8.670;2023-08-01T15:16:41;28.90;82.20
47765;DHT22;33529;49.242;8.670;2023-08-01T15:19:08;29.90;79.50
47765;DHT22;33529;49.242;8.670;2023-08-01T15:21:35;29.70;77.70
47765;DHT22;33529;49.242;8.670;2023-08-01T15:24:02;29.70;78.50
47765;DHT22;33529;49.242;8.670;2023-08-01T15:26:29;29.60;76.90
47765;DHT22;33529;49.242;8.670;2023-08-01T15:28:55;29.20;79.10
47765;DHT22;33529;49.242;8.670;2023-08-01T15:31:22;29.40;77.10
47765;DHT22;33529;49.242;8.670;2023-08-01T15:33:49;29.60;75.90
47765;DHT22;33529;49.242;8.670;2023-08-01T15:36:16;29.70;77.10
47765;DHT22;33529;49.242;8.670;2023-08-01T15:38:43;28.60;76.90
47765;DHT22;33529;49.242;8.670;2023-08-01T15:41:10;27.30;79.00
47765;DHT22;33529;49.242;8.670;2023-08-01T15:43:39;26.60;79.80